Time;durP1;ratioP1;P1;durP2;ratioP2;P2;SDS_P1;SDS_P2;PMS_P1;PMS_P2;Temp;Humidity;BMP_temperature;BMP_pressure;BME280_temperature;BME280_humidity;BME280_pressure;Samples;Min_cycle;Max_cycle;Signal;HPM_P1;HPM_P2
2023/07/05 00:01:18;;;;;;;;;;;14.60;99.90;;;;;;5048835;28;19924;-95
2023/07/05 00:03:44;;;;;;;;;;;14.60;99.90;;;;;;5048303;28;19924;-94
2023/07/05 00:06:15;;;;;;;;;;;14.60;99.90;;;;;;5053376;28;20383;-95
2023/07/05 00:08:41;;;;;;;;;;;14.30;99.90;;;;;;5051915;28;19932;-94
2023/07/05 00:11:08;;;;;;;;;;;14.50;99.90;;;;;;5054418;28;19954;-95
2023/07/05 00:13:34;;;;;;;;;;;14.50;99.90;;;;;;5054476;28;19932;-94
2023/07/05 00:16:00;;;;;;;;;;;14.50;99.90;;;;;;5052478;28;19955;-94
2023/07/05 00:18:41;;;;;;;;;;;14.60;99.90;;;;;;5053831;28;19928;-94
2023/07/05 00:21:08;;;;;;;;;;;14.50;99.90;;;;;;5049612;28;20033;-94
2023/07/05 00:23:41;;;;;;;;;;;14.40;99.90;;;;;;5053943;28;19951;-94
2023/07/05 00:26:07;;;;;;;;;;;14.50;99.90;;;;;;5053275;28;19932;-95
2023/07/05 00:28:42;;;;;;;;;;;14.40;99.90;;;;;;5085153;28;19928;-95
2023/07/05 00:31:10;;;;;;;;;;;14.40;99.90;;;;;;5069062;28;20467;-95
2023/07/05 00:33:36;;;;;;;;;;;14.40;99.90;;;;;;5052581;28;19936;-94
2023/07/05 00:36:04;;;;;;;;;;;14.40;99.90;;;;;;5086939;28;19924;-95
2023/07/05 00:38:39;;;;;;;;;;;14.40;99.90;;;;;;5053550;28;19924;-96
2023/07/05 00:41:05;;;;;;;;;;;14.40;99.90;;;;;;5052097;28;19970;-95
2023/07/05 00:43:36;;;;;;;;;;;14.40;99.90;;;;;;5076908;28;19925;-95
2023/07/05 00:46:04;;;;;;;;;;;14.40;99.90;;;;;;5048018;28;20026;-96
2023/07/05 00:48:33;;;;;;;;;;;14.40;99.90;;;;;;5064089;28;20374;-95
2023/07/05 00:51:42;;;;;;;;;;;14.40;99.90;;;;;;5073798;28;19934;-95
2023/07/05 00:54:05;;;;;;;;;;;14.40;99.90;;;;;;5068626;28;19985;-95
2023/07/05 00:56:38;;;;;;;;;;;14.40;99.90;;;;;;5074559;28;20279;-95
2023/07/05 01:02:40;;;;;;;;;;;14.40;99.90;;;;;;5001566;28;19924;-94
2023/07/05 01:05:17;;;;;;;;;;;14.60;99.90;;;;;;5089147;28;19928;-94
2023/07/05 01:07:45;;;;;;;;;;;14.40;99.90;;;;;;5051523;28;19930;-94
2023/07/05 01:10:36;;;;;;;;;;;14.40;99.90;;;;;;5074716;28;19952;-94
2023/07/05 01:14:06;;;;;;;;;;;;;;;;;;;;;
2023/07/05 01:16:32;;;;;;;;;;;14.40;99.90;;;;;;5046332;28;19928;-93
2023/07/05 01:22:09;;;;;;;;;;;14.40;99.90;;;;;;4997764;28;20390;-94
2023/07/05 01:25:05;;;;;;;;;;;14.40;99.90;;;;;;5049663;28;19974;-95
2023/07/05 01:27:43;;;;;;;;;;;14.40;99.90;;;;;;5069792;28;19924;-94
2023/07/05 01:39:48;;;;;;;;;;;;;;;;;;;;;
2023/07/05 01:42:38;;;;;;;;;;;14.40;99.90;;;;;;5073185;28;19929;-93
2023/07/05 01:45:18;;;;;;;;;;;13.70;99.90;;;;;;5055305;28;19924;-94
2023/07/05 01:47:47;;;;;;;;;;;14.40;99.90;;;;;;5057086;28;19924;-93
2023/07/05 01:50:21;;;;;;;;;;;14.40;99.90;;;;;;5065014;28;19963;-94
2023/07/05 01:53:02;;;;;;;;;;;14.40;99.90;;;;;;5059790;28;20041;-94
2023/07/05 01:55:43;;;;;;;;;;;14.30;99.90;;;;;;5060409;28;20320;-94
2023/07/05 01:58:13;;;;;;;;;;;14.40;99.90;;;;;;5074385;28;20458;-94
2023/07/05 02:00:40;;;;;;;;;;;14.10;99.90;;;;;;5069801;28;19932;-94
2023/07/05 02:03:29;;;;;;;;;;;14.40;99.90;;;;;;5055871;28;19928;-94
2023/07/05 02:05:54;;;;;;;;;;;14.40;99.90;;;;;;5072693;28;19924;-93
2023/07/05 02:08:27;;;;;;;;;;;14.30;99.90;;;;;;5074394;28;19930;-95
2023/07/05 02:10:53;;;;;;;;;;;14.30;99.90;;;;;;5073840;28;19928;-94
2023/07/05 02:13:19;;;;;;;;;;;14.30;99.90;;;;;;5075635;28;20006;-94
2023/07/05 02:15:55;;;;;;;;;;;;;;;;;;;;;
2023/07/05 02:18:24;;;;;;;;;;;14.20;99.90;;;;;;5071636;28;20027;-94
2023/07/05 02:20:56;;;;;;;;;;;14.20;99.90;;;;;;5095595;28;19975;-93
2023/07/05 02:23:23;;;;;;;;;;;14.20;99.90;;;;;;5071977;28;19971;-94
2023/07/05 02:25:55;;;;;;;;;;;14.20;99.90;;;;;;5054422;28;19987;-94
2023/07/05 02:31:02;;;;;;;;;;;14.10;99.90;;;;;;5078508;22;20273;-95
2023/07/05 02:33:29;;;;;;;;;;;14.10;99.90;;;;;;5037467;28;19924;-94
2023/07/05 02:35:54;;;;;;;;;;;14.10;99.90;;;;;;5036945;28;20374;-94
2023/07/05 02:38:32;;;;;;;;;;;14.10;99.90;;;;;;5037682;28;19924;-94
2023/07/05 02:41:10;;;;;;;;;;;14.10;99.90;;;;;;5037196;28;19929;-95
2023/07/05 02:43:45;;;;;;;;;;;14.10;99.90;;;;;;5036433;28;20294;-94
2023/07/05 02:49:17;;;;;;;;;;;13.90;99.90;;;;;;5058242;22;19932;-95
2023/07/05 02:51:46;;;;;;;;;;;14.10;99.90;;;;;;5023335;23;19928;-96
2023/07/05 02:54:11;;;;;;;;;;;14.10;99.90;;;;;;5018618;28;19959;-96
2023/07/05 02:57:09;;;;;;;;;;;14.10;99.90;;;;;;5016840;28;19921;-96
2023/07/05 02:59:40;;;;;;;;;;;13.90;99.90;;;;;;5002401;23;20000;-94
2023/07/05 03:02:08;;;;;;;;;;;14.10;99.90;;;;;;5012410;28;19932;-95
2023/07/05 03:04:48;;;;;;;;;;;14.10;99.90;;;;;;5010585;23;19936;-96
2023/07/05 03:07:16;;;;;;;;;;;13.80;99.90;;;;;;4997076;28;19933;-96
2023/07/05 03:09:48;;;;;;;;;;;14.20;99.90;;;;;;5012987;28;19929;-95
2023/07/05 03:12:30;;;;;;;;;;;14.20;99.90;;;;;;4982414;28;20411;-95
2023/07/05 03:15:02;;;;;;;;;;;13.50;99.90;;;;;;4994539;28;19930;-96
2023/07/05 03:17:40;;;;;;;;;;;14.20;99.90;;;;;;4994916;28;19968;-96
2023/07/05 03:20:23;;;;;;;;;;;14.20;99.90;;;;;;4990668;28;19933;-95
2023/07/05 03:22:50;;;;;;;;;;;14.20;99.90;;;;;;5013044;28;20031;-96
2023/07/05 03:25:36;;;;;;;;;;;14.10;99.90;;;;;;4981508;28;20474;-96
2023/07/05 03:28:02;;;;;;;;;;;14.20;99.90;;;;;;4990797;28;19926;-96
2023/07/05 03:31:00;;;;;;;;;;;14.20;99.90;;;;;;4986734;28;20556;-96
2023/07/05 03:33:26;;;;;;;;;;;14.00;99.90;;;;;;4984767;28;20364;-95
2023/07/05 03:39:03;;;;;;;;;;;14.10;99.90;;;;;;5018804;28;20318;-96
2023/07/05 03:41:31;;;;;;;;;;;14.20;99.90;;;;;;4993605;28;20238;-96
2023/07/05 03:43:58;;;;;;;;;;;14.00;99.90;;;;;;4993405;28;20020;-96
2023/07/05 03:46:27;;;;;;;;;;;14.20;99.90;;;;;;4991023;28;19929;-96
2023/07/05 03:48:55;;;;;;;;;;;13.80;99.90;;;;;;4983044;28;20126;-96
2023/07/05 03:51:38;;;;;;;;;;;14.20;99.90;;;;;;4994247;28;19925;-94
2023/07/05 03:54:03;;;;;;;;;;;14.20;99.90;;;;;;4996519;28;19929;-96
2023/07/05 03:56:29;;;;;;;;;;;14.40;99.90;;;;;;4994813;28;20427;-96
2023/07/05 03:58:55;;;;;;;;;;;14.20;99.90;;;;;;4997328;28;19929;-96
2023/07/05 04:01:41;;;;;;;;;;;14.30;99.90;;;;;;4999712;28;19929;-96
2023/07/05 04:04:07;;;;;;;;;;;14.40;99.90;;;;;;4996163;28;19925;-96
2023/07/05 04:07:29;;;;;;;;;;;;;;;;;;;;;
2023/07/05 04:09:44;;;;;;;;;;;14.30;99.90;;;;;;5017605;28;19925;-96
2023/07/05 04:12:10;;;;;;;;;;;14.40;99.90;;;;;;5020030;28;19925;-96
2023/07/05 04:14:35;;;;;;;;;;;14.30;99.90;;;;;;5009932;28;19966;-96
2023/07/05 04:17:04;;;;;;;;;;;14.40;99.90;;;;;;5009281;28;19929;-96
2023/07/05 04:19:30;;;;;;;;;;;14.40;99.90;;;;;;5014378;28;20002;-96
2023/07/05 04:21:56;;;;;;;;;;;14.40;99.90;;;;;;5009128;28;19928;-96
2023/07/05 04:24:21;;;;;;;;;;;14.40;99.90;;;;;;5011512;28;19952;-96
2023/07/05 04:26:47;;;;;;;;;;;14.40;99.90;;;;;;5007774;28;20308;-96
2023/07/05 04:29:13;;;;;;;;;;;14.50;99.90;;;;;;4995804;28;19996;-95
2023/07/05 04:31:38;;;;;;;;;;;14.50;99.90;;;;;;5008360;28;19932;-96
2023/07/05 04:34:07;;;;;;;;;;;14.50;99.90;;;;;;5003844;28;19933;-95
2023/07/05 04:36:33;;;;;;;;;;;15.00;99.90;;;;;;5000296;28;19940;-96
2023/07/05 04:39:05;;;;;;;;;;;14.10;99.90;;;;;;5012813;28;19921;-95
2023/07/05 04:41:33;;;;;;;;;;;14.60;99.90;;;;;;5009658;28;20468;-95
2023/07/05 04:44:05;;;;;;;;;;;14.70;99.90;;;;;;5000778;28;20008;-94
2023/07/05 04:46:31;;;;;;;;;;;14.70;99.90;;;;;;5016156;28;19929;-94
2023/07/05 04:49:00;;;;;;;;;;;14.80;99.90;;;;;;4997614;28;20227;-94
2023/07/05 04:51:28;;;;;;;;;;;14.60;99.90;;;;;;4999667;28;19979;-94
2023/07/05 04:53:54;;;;;;;;;;;14.80;99.90;;;;;;5001408;28;20016;-94
2023/07/05 04:56:19;;;;;;;;;;;14.80;99.90;;;;;;5005355;28;20012;-94
2023/07/05 04:58:48;;;;;;;;;;;14.90;99.90;;;;;;5002602;28;19925;-95
2023/07/05 05:01:14;;;;;;;;;;;14.90;99.90;;;;;;4997295;28;19926;-95
2023/07/05 05:03:40;;;;;;;;;;;14.90;99.90;;;;;;5049295;28;19936;-95
2023/07/05 05:06:12;;;;;;;;;;;14.80;99.90;;;;;;4997861;28;19930;-94
2023/07/05 05:08:41;;;;;;;;;;;14.90;99.90;;;;;;4995796;28;20370;-95
2023/07/05 05:11:15;;;;;;;;;;;14.90;99.90;;;;;;4988965;28;19933;-95
2023/07/05 05:14:56;;;;;;;;;;;;;;;;;;;;;
2023/07/05 05:31:37;;;;;;;;;;;;;;;;;;;;;
2023/07/05 05:41:07;;;;;;;;;;;14.40;99.90;;;;;;5164725;22;19928;-90
2023/07/05 05:47:48;;;;;;;;;;;;;;;;;;;;;
2023/07/05 05:51:04;;;;;;;;;;;14.70;99.90;;;;;;5127850;22;19933;-88
2023/07/05 06:00:03;;;;;;;;;;;15.10;99.90;;;;;;4978141;28;20363;-89
2023/07/05 06:03:05;;;;;;;;;;;15.10;99.90;;;;;;5011784;28;20019;-89
2023/07/05 06:05:56;;;;;;;;;;;15.00;99.90;;;;;;5019025;28;20306;-90
2023/07/05 06:08:53;;;;;;;;;;;15.30;99.90;;;;;;4954471;28;19976;-89
2023/07/05 06:11:49;;;;;;;;;;;15.40;99.90;;;;;;4985684;28;19979;-87
2023/07/05 06:14:15;;;;;;;;;;;15.40;99.90;;;;;;5025623;28;20012;-89
2023/07/05 06:16:50;;;;;;;;;;;15.50;99.90;;;;;;5005097;28;20019;-88
2023/07/05 06:19:26;;;;;;;;;;;;;;;;;;;;;
2023/07/05 06:22:04;;;;;;;;;;;15.60;99.90;;;;;;5018264;28;19925;-87
2023/07/05 06:24:32;;;;;;;;;;;15.70;99.90;;;;;;5002093;28;19927;-87
2023/07/05 06:26:59;;;;;;;;;;;15.60;99.90;;;;;;5001263;28;19925;-88
2023/07/05 06:29:24;;;;;;;;;;;15.70;99.90;;;;;;5022165;28;20012;-88
2023/07/05 06:31:50;;;;;;;;;;;15.60;99.90;;;;;;5001333;28;19980;-87
2023/07/05 06:34:25;;;;;;;;;;;15.60;99.90;;;;;;5022777;28;19929;-87
2023/07/05 06:36:50;;;;;;;;;;;15.60;99.90;;;;;;5000739;28;19925;-87
2023/07/05 06:39:19;;;;;;;;;;;15.50;99.90;;;;;;5005599;28;19936;-87
2023/07/05 06:41:44;;;;;;;;;;;15.50;99.90;;;;;;5011875;28;19926;-86
2023/07/05 06:44:10;;;;;;;;;;;15.60;99.90;;;;;;5001394;28;19925;-87
2023/07/05 06:46:36;;;;;;;;;;;15.60;99.90;;;;;;4996179;28;20020;-87
2023/07/05 06:49:14;;;;;;;;;;;15.60;99.90;;;;;;4996307;28;20494;-87
2023/07/05 06:51:39;;;;;;;;;;;15.80;99.90;;;;;;5012284;28;20285;-87
2023/07/05 06:54:05;;;;;;;;;;;15.90;99.90;;;;;;4996713;28;19925;-87
2023/07/05 06:56:34;;;;;;;;;;;15.90;99.90;;;;;;5012586;28;19971;-87
2023/07/05 06:59:00;;;;;;;;;;;15.90;99.90;;;;;;5012714;28;19937;-86
2023/07/05 07:01:25;;;;;;;;;;;15.70;99.90;;;;;;4990833;28;19930;-86
2023/07/05 07:03:51;;;;;;;;;;;15.70;99.90;;;;;;4992567;28;19929;-88
2023/07/05 07:06:19;;;;;;;;;;;15.50;99.90;;;;;;4996692;28;20353;-87
2023/07/05 07:08:45;;;;;;;;;;;15.50;99.90;;;;;;4996905;28;20012;-87
2023/07/05 07:11:18;;;;;;;;;;;15.70;99.90;;;;;;4995860;28;19921;-87
2023/07/05 07:13:59;;;;;;;;;;;15.70;99.90;;;;;;4996316;28;19951;-87
2023/07/05 07:16:28;;;;;;;;;;;15.90;99.90;;;;;;4995268;28;19921;-87
2023/07/05 07:18:56;;;;;;;;;;;16.50;99.90;;;;;;4995997;28;19940;-87
2023/07/05 07:21:23;;;;;;;;;;;16.30;99.90;;;;;;4995998;28;19921;-87
2023/07/05 07:23:49;;;;;;;;;;;16.50;99.90;;;;;;5012838;28;19929;-89
2023/07/05 07:26:17;;;;;;;;;;;16.70;99.90;;;;;;4995614;28;20277;-87
2023/07/05 07:28:47;;;;;;;;;;;16.80;99.90;;;;;;5012317;28;19925;-88
2023/07/05 07:31:14;;;;;;;;;;;16.90;99.90;;;;;;4996202;28;20051;-87
2023/07/05 07:33:44;;;;;;;;;;;16.90;99.90;;;;;;5003844;28;19936;-88
2023/07/05 07:36:11;;;;;;;;;;;16.70;99.90;;;;;;5001566;28;20041;-87
2023/07/05 07:38:43;;;;;;;;;;;16.50;99.90;;;;;;5014572;28;19925;-87
2023/07/05 07:41:30;;;;;;;;;;;16.30;99.90;;;;;;4999363;28;20023;-88
2023/07/05 07:44:03;;;;;;;;;;;16.40;99.90;;;;;;5012202;28;20015;-87
2023/07/05 07:46:30;;;;;;;;;;;16.60;99.90;;;;;;4994585;28;19929;-89
2023/07/05 07:48:57;;;;;;;;;;;16.50;99.90;;;;;;5013239;28;19925;-88
2023/07/05 07:51:24;;;;;;;;;;;16.70;99.90;;;;;;4997114;28;19929;-88
2023/07/05 07:53:50;;;;;;;;;;;16.60;99.90;;;;;;4995491;28;19994;-89
2023/07/05 07:56:18;;;;;;;;;;;16.40;99.90;;;;;;4995578;28;19929;-88
2023/07/05 07:59:06;;;;;;;;;;;16.20;99.90;;;;;;5011514;28;20289;-88
2023/07/05 08:01:38;;;;;;;;;;;15.90;99.90;;;;;;5005449;28;19936;-90
2023/07/05 08:04:05;;;;;;;;;;;15.60;99.90;;;;;;5010609;28;19929;-88
2023/07/05 08:06:44;;;;;;;;;;;15.30;99.90;;;;;;5011106;28;20011;-88
2023/07/05 08:09:11;;;;;;;;;;;15.10;99.90;;;;;;5012456;28;19979;-90
2023/07/05 08:11:38;;;;;;;;;;;14.80;99.90;;;;;;4996162;28;19995;-89
2023/07/05 08:14:07;;;;;;;;;;;14.70;99.90;;;;;;4996454;28;19925;-90
2023/07/05 08:16:36;;;;;;;;;;;14.50;99.90;;;;;;4996408;28;20377;-95
2023/07/05 08:19:01;;;;;;;;;;;14.70;99.90;;;;;;4996166;28;19935;-90
2023/07/05 08:21:30;;;;;;;;;;;14.30;99.90;;;;;;4996316;28;20008;-90
2023/07/05 08:23:56;;;;;;;;;;;14.20;99.90;;;;;;5015650;28;19933;-92
2023/07/05 08:26:28;;;;;;;;;;;14.20;99.90;;;;;;5014366;28;19932;-91
2023/07/05 08:28:54;;;;;;;;;;;14.00;99.90;;;;;;5011313;28;19931;-92
2023/07/05 08:31:29;;;;;;;;;;;13.80;99.90;;;;;;5009375;28;19924;-92
2023/07/05 08:33:55;;;;;;;;;;;13.60;99.90;;;;;;5005936;28;19932;-91
2023/07/05 08:36:56;;;;;;;;;;;13.60;99.90;;;;;;5025018;28;20293;-90
2023/07/05 08:39:22;;;;;;;;;;;13.40;99.90;;;;;;4996322;28;19933;-91
2023/07/05 08:41:48;;;;;;;;;;;13.30;99.90;;;;;;4995771;28;20300;-91
2023/07/05 08:44:22;;;;;;;;;;;13.20;99.90;;;;;;5010375;28;20382;-93
2023/07/05 08:47:11;;;;;;;;;;;13.10;99.90;;;;;;5017671;28;19972;-91
2023/07/05 08:49:53;;;;;;;;;;;13.00;99.90;;;;;;5008052;28;20408;-88
2023/07/05 08:52:38;;;;;;;;;;;13.00;99.90;;;;;;5012096;28;19936;-89
2023/07/05 08:55:15;;;;;;;;;;;12.70;99.90;;;;;;5008293;28;19928;-90
2023/07/05 08:57:44;;;;;;;;;;;12.80;99.90;;;;;;4992274;28;19931;-90
2023/07/05 09:00:13;;;;;;;;;;;12.80;99.90;;;;;;5007514;28;20415;-91
2023/07/05 09:02:44;;;;;;;;;;;12.80;99.90;;;;;;5000350;28;20372;-91
2023/07/05 09:05:33;;;;;;;;;;;12.80;99.90;;;;;;5014237;28;19925;-92
2023/07/05 09:08:27;;;;;;;;;;;12.70;99.90;;;;;;5011769;28;19925;-92
2023/07/05 09:10:55;;;;;;;;;;;12.60;99.90;;;;;;5003199;28;19929;-91
2023/07/05 09:13:27;;;;;;;;;;;12.60;99.90;;;;;;5016666;28;19932;-94
2023/07/05 09:16:00;;;;;;;;;;;12.60;99.90;;;;;;5023402;28;20502;-92
2023/07/05 09:18:47;;;;;;;;;;;12.40;99.90;;;;;;5014906;28;19970;-93
2023/07/05 09:21:16;;;;;;;;;;;12.50;99.90;;;;;;5033211;28;19920;-93
2023/07/05 09:23:48;;;;;;;;;;;12.50;99.90;;;;;;5015820;28;19925;-92
2023/07/05 09:26:35;;;;;;;;;;;11.50;99.90;;;;;;5016098;28;19925;-94
2023/07/05 09:29:03;;;;;;;;;;;12.60;99.90;;;;;;5018102;28;19932;-92
2023/07/05 09:31:28;;;;;;;;;;;12.60;99.90;;;;;;5014943;28;20011;-92
2023/07/05 09:34:15;;;;;;;;;;;12.70;99.90;;;;;;5018615;28;20435;-93
2023/07/05 09:37:08;;;;;;;;;;;12.70;99.90;;;;;;5001168;28;19921;-90
2023/07/05 09:39:59;;;;;;;;;;;12.80;99.90;;;;;;5003836;28;19929;-94
2023/07/05 09:42:55;;;;;;;;;;;12.90;99.90;;;;;;5018753;28;20037;-91
2023/07/05 09:45:51;;;;;;;;;;;12.90;99.90;;;;;;4996102;28;19932;-92
2023/07/05 09:48:20;;;;;;;;;;;13.00;99.90;;;;;;4983325;28;19948;-89
2023/07/05 09:51:03;;;;;;;;;;;13.10;99.90;;;;;;4998507;28;20304;-89
2023/07/05 09:53:32;;;;;;;;;;;13.30;99.90;;;;;;5014473;28;20349;-89
2023/07/05 09:56:03;;;;;;;;;;;13.30;99.90;;;;;;5014205;28;19967;-89
2023/07/05 09:58:28;;;;;;;;;;;13.40;99.90;;;;;;5014227;28;19925;-89
2023/07/05 10:00:58;;;;;;;;;;;13.40;99.90;;;;;;5013410;28;19925;-90
2023/07/05 10:03:41;;;;;;;;;;;13.50;99.90;;;;;;5007909;28;19925;-89
2023/07/05 10:06:15;;;;;;;;;;;13.50;99.90;;;;;;4997540;28;19936;-90
2023/07/05 10:08:43;;;;;;;;;;;13.60;99.90;;;;;;4998856;28;19948;-91
2023/07/05 10:11:22;;;;;;;;;;;13.70;99.90;;;;;;4999284;28;19921;-90
2023/07/05 10:14:05;;;;;;;;;;;13.70;99.90;;;;;;4998098;28;19929;-90
2023/07/05 10:16:45;;;;;;;;;;;13.80;99.90;;;;;;4997706;28;19925;-91
2023/07/05 10:19:21;;;;;;;;;;;13.80;99.90;;;;;;5014491;28;19972;-91
2023/07/05 10:21:48;;;;;;;;;;;13.90;99.90;;;;;;4994558;28;19987;-90
2023/07/05 10:24:24;;;;;;;;;;;14.00;99.90;;;;;;4998426;28;19929;-90
2023/07/05 10:27:01;;;;;;;;;;;14.20;99.90;;;;;;5013213;28;19944;-89
2023/07/05 10:29:27;;;;;;;;;;;14.30;99.90;;;;;;4998097;28;19987;-89
2023/07/05 10:31:54;;;;;;;;;;;14.60;99.90;;;;;;4984205;28;19967;-89
2023/07/05 10:34:23;;;;;;;;;;;14.90;99.90;;;;;;5026898;28;19936;-89
2023/07/05 10:36:48;;;;;;;;;;;15.10;99.90;;;;;;5020422;28;19947;-88
2023/07/05 10:39:21;;;;;;;;;;;15.00;99.90;;;;;;5019889;28;19926;-90
2023/07/05 10:41:48;;;;;;;;;;;15.30;99.90;;;;;;5012137;28;19986;-89
2023/07/05 10:44:19;;;;;;;;;;;15.30;99.90;;;;;;5014232;28;20343;-88
2023/07/05 10:46:45;;;;;;;;;;;14.90;99.90;;;;;;5012971;28;20286;-90
2023/07/05 10:49:14;;;;;;;;;;;15.30;99.90;;;;;;5013268;28;19936;-89
2023/07/05 10:51:52;;;;;;;;;;;15.30;99.90;;;;;;4997353;28;19936;-89
2023/07/05 10:54:17;;;;;;;;;;;15.10;99.90;;;;;;5013669;28;20395;-89
2023/07/05 10:56:44;;;;;;;;;;;15.20;99.90;;;;;;4996388;28;20018;-88
2023/07/05 10:59:10;;;;;;;;;;;15.30;99.90;;;;;;5014300;28;19925;-89
2023/07/05 11:01:48;;;;;;;;;;;15.50;99.90;;;;;;5006909;28;19953;-89
2023/07/05 11:04:18;;;;;;;;;;;15.50;99.90;;;;;;5011958;28;20307;-89
2023/07/05 11:06:45;;;;;;;;;;;15.80;99.90;;;;;;5013390;28;20469;-88
2023/07/05 11:09:14;;;;;;;;;;;16.10;99.90;;;;;;5012623;28;19989;-89
2023/07/05 11:11:44;;;;;;;;;;;16.20;99.90;;;;;;5012723;28;19929;-90
2023/07/05 11:14:12;;;;;;;;;;;16.30;99.90;;;;;;5013269;28;19986;-89
2023/07/05 11:16:39;;;;;;;;;;;16.40;99.90;;;;;;4995865;28;20340;-90
2023/07/05 11:19:10;;;;;;;;;;;16.60;99.90;;;;;;4996895;28;20060;-89
2023/07/05 11:21:37;;;;;;;;;;;16.90;99.90;;;;;;4997073;28;19933;-90
2023/07/05 11:24:04;;;;;;;;;;;17.20;99.90;;;;;;4996340;28;19928;-89
2023/07/05 11:26:34;;;;;;;;;;;17.40;99.90;;;;;;4996670;28;20369;-88
2023/07/05 11:29:00;;;;;;;;;;;17.70;99.90;;;;;;4996699;28;19932;-88
2023/07/05 11:31:30;;;;;;;;;;;17.80;99.90;;;;;;4995559;28;19932;-89
2023/07/05 11:34:31;;;;;;;;;;;17.70;99.90;;;;;;4996624;28;19925;-89
2023/07/05 11:37:04;;;;;;;;;;;17.80;99.90;;;;;;5013035;28;20576;-88
2023/07/05 11:39:37;;;;;;;;;;;17.70;99.90;;;;;;4996866;28;19929;-89
2023/07/05 11:42:11;;;;;;;;;;;17.70;99.90;;;;;;5012297;28;19925;-89
2023/07/05 11:44:38;;;;;;;;;;;18.00;99.90;;;;;;5009009;28;19925;-89
2023/07/05 11:47:04;;;;;;;;;;;18.00;99.90;;;;;;5023012;28;20261;-89
2023/07/05 11:49:32;;;;;;;;;;;18.00;99.90;;;;;;5010977;28;19936;-88
2023/07/05 11:52:01;;;;;;;;;;;17.70;99.90;;;;;;5006142;28;19935;-88
2023/07/05 11:54:31;;;;;;;;;;;17.50;99.90;;;;;;4993863;28;20266;-88
2023/07/05 11:56:59;;;;;;;;;;;17.30;99.90;;;;;;5024071;28;20699;-88
2023/07/05 11:59:27;;;;;;;;;;;17.30;99.90;;;;;;5001432;28;20385;-89
2023/07/05 12:01:53;;;;;;;;;;;17.30;99.90;;;;;;4996564;28;19929;-89
2023/07/05 12:04:21;;;;;;;;;;;17.50;99.90;;;;;;5002745;28;19951;-88
2023/07/05 12:06:46;;;;;;;;;;;17.60;99.90;;;;;;5013371;28;19983;-89
2023/07/05 12:09:16;;;;;;;;;;;17.70;99.90;;;;;;5014502;28;19925;-88
2023/07/05 12:11:42;;;;;;;;;;;17.60;99.90;;;;;;5012917;28;20335;-88
2023/07/05 12:14:10;;;;;;;;;;;17.60;99.90;;;;;;5024136;28;19972;-89
2023/07/05 12:16:36;;;;;;;;;;;17.50;99.90;;;;;;5006050;28;19929;-90
2023/07/05 12:19:05;;;;;;;;;;;17.30;99.90;;;;;;5012022;28;20435;-89
2023/07/05 12:21:32;;;;;;;;;;;16.90;99.90;;;;;;5024441;28;19928;-89
2023/07/05 12:23:58;;;;;;;;;;;16.40;99.90;;;;;;5014368;28;19928;-90
2023/07/05 12:26:27;;;;;;;;;;;15.90;99.90;;;;;;4999327;28;19929;-90
2023/07/05 12:28:57;;;;;;;;;;;15.60;99.90;;;;;;5014436;28;19956;-89
2023/07/05 12:31:25;;;;;;;;;;;15.30;99.90;;;;;;5001859;28;20381;-89
2023/07/05 12:33:53;;;;;;;;;;;15.10;99.90;;;;;;5005073;28;19928;-90
2023/07/05 12:36:20;;;;;;;;;;;14.90;99.90;;;;;;5026665;28;19960;-89
2023/07/05 12:38:47;;;;;;;;;;;14.40;99.90;;;;;;5013620;28;19925;-91
2023/07/05 12:41:14;;;;;;;;;;;14.60;99.90;;;;;;5011695;28;20411;-91
2023/07/05 12:46:50;;;;;;;;;;;14.30;99.90;;;;;;4978773;28;20011;-93
2023/07/05 12:49:30;;;;;;;;;;;14.10;99.90;;;;;;5000779;28;20044;-89
2023/07/05 12:52:16;;;;;;;;;;;14.00;99.90;;;;;;4996836;28;19929;-90
2023/07/05 12:54:42;;;;;;;;;;;13.80;99.90;;;;;;5004527;28;19929;-90
2023/07/05 12:57:33;;;;;;;;;;;13.90;99.90;;;;;;5000200;28;20419;-89
2023/07/05 13:00:07;;;;;;;;;;;13.90;99.90;;;;;;5016325;28;19925;-91
2023/07/05 13:02:33;;;;;;;;;;;13.80;99.90;;;;;;4999735;28;19925;-92
2023/07/05 13:04:59;;;;;;;;;;;13.80;99.90;;;;;;5011690;28;20282;-92
2023/07/05 13:07:28;;;;;;;;;;;13.90;99.90;;;;;;5000309;28;20012;-92
2023/07/05 13:10:10;;;;;;;;;;;13.80;99.90;;;;;;5015219;28;20009;-94
2023/07/05 13:13:29;;;;;;;;;;;13.80;99.90;;;;;;4988384;28;19925;-91
2023/07/05 13:15:33;;;;;;;;;;;13.80;99.90;;;;;;5010798;28;20377;-89
2023/07/05 13:18:21;;;;;;;;;;;13.80;99.90;;;;;;4999900;28;19925;-92
2023/07/05 13:21:05;;;;;;;;;;;13.80;99.90;;;;;;5006078;28;19983;-94
2023/07/05 13:23:31;;;;;;;;;;;13.70;99.90;;;;;;4999509;28;19925;-93
2023/07/05 13:26:37;;;;;;;;;;;;;;;;;;;;;
2023/07/05 13:49:17;;;;;;;;;;;13.10;99.90;;;;;;4976281;28;19930;-94
2023/07/05 13:55:54;;;;;;;;;;;;;;;;;;;;;
2023/07/05 13:58:31;;;;;;;;;;;;;;;;;;;;;
2023/07/05 14:01:24;;;;;;;;;;;13.20;99.90;;;;;;4958891;28;19926;-96
2023/07/05 14:04:34;;;;;;;;;;;13.30;99.90;;;;;;4937643;29;19934;-96
2023/07/05 14:07:07;;;;;;;;;;;13.10;99.90;;;;;;4940186;28;19926;-95
2023/07/05 14:09:33;;;;;;;;;;;13.20;99.90;;;;;;4937988;29;19937;-96
2023/07/05 14:15:47;;;;;;;;;;;13.50;99.90;;;;;;4973765;28;19976;-95
2023/07/05 14:22:00;;;;;;;;;;;13.70;99.90;;;;;;4915266;28;19926;-96
2023/07/05 14:33:33;;;;;;;;;;;13.90;99.90;;;;;;4907389;28;20266;-95
2023/07/05 14:49:14;;;;;;;;;;;14.60;99.90;;;;;;4924944;28;19933;-94
2023/07/05 14:52:26;;;;;;;;;;;14.60;99.90;;;;;;4957613;28;19926;-93
2023/07/05 14:54:54;;;;;;;;;;;14.80;99.90;;;;;;4894615;28;20420;-94
2023/07/05 14:57:19;;;;;;;;;;;14.80;99.90;;;;;;4939513;28;19973;-94
2023/07/05 14:59:45;;;;;;;;;;;14.90;99.90;;;;;;4939573;28;19962;-93
2023/07/05 15:02:20;;;;;;;;;;;14.90;99.90;;;;;;4930942;28;19930;-91
2023/07/05 15:08:15;;;;;;;;;;;14.90;99.90;;;;;;4902257;29;19997;-94
2023/07/05 15:10:43;;;;;;;;;;;14.90;99.90;;;;;;4938065;28;20318;-93
2023/07/05 15:13:12;;;;;;;;;;;14.80;99.90;;;;;;4939993;28;19941;-93
2023/07/05 15:15:38;;;;;;;;;;;14.90;99.90;;;;;;4938129;28;19930;-93
2023/07/05 15:18:05;;;;;;;;;;;14.90;99.90;;;;;;4956177;28;20125;-93
2023/07/05 15:20:39;;;;;;;;;;;15.00;99.90;;;;;;4939385;28;19957;-94
2023/07/05 15:23:15;;;;;;;;;;;;;;;;;;;;;
2023/07/05 15:26:30;;;;;;;;;;;15.10;99.90;;;;;;4954630;28;20001;-92
2023/07/05 15:28:38;;;;;;;;;;;15.10;99.90;;;;;;4961379;28;20459;-91
2023/07/05 15:31:04;;;;;;;;;;;14.60;99.90;;;;;;4938199;28;19930;-91
2023/07/05 15:33:33;;;;;;;;;;;15.10;99.90;;;;;;4938622;28;19980;-91
2023/07/05 15:35:59;;;;;;;;;;;15.10;99.90;;;;;;4938554;28;19938;-91
2023/07/05 15:38:25;;;;;;;;;;;15.20;99.90;;;;;;4941694;28;19934;-90
2023/07/05 15:40:53;;;;;;;;;;;15.30;99.90;;;;;;4938447;28;20290;-90
2023/07/05 15:43:27;;;;;;;;;;;15.50;99.90;;;;;;4937756;28;20441;-91
2023/07/05 15:45:56;;;;;;;;;;;15.40;99.90;;;;;;4951370;28;19936;-90
2023/07/05 15:48:32;;;;;;;;;;;15.70;99.90;;;;;;4955023;28;19926;-89
2023/07/05 15:51:00;;;;;;;;;;;15.80;99.90;;;;;;4956708;28;19973;-92
2023/07/05 15:53:26;;;;;;;;;;;16.00;99.90;;;;;;4957666;28;19967;-89
2023/07/05 15:55:53;;;;;;;;;;;16.00;99.90;;;;;;4957346;28;19961;-89
2023/07/05 15:58:21;;;;;;;;;;;16.00;99.90;;;;;;4956857;28;19926;-90
2023/07/05 16:01:00;;;;;;;;;;;15.50;99.90;;;;;;4956963;28;19930;-90
2023/07/05 16:03:27;;;;;;;;;;;15.60;99.90;;;;;;4957760;28;19940;-90
2023/07/05 16:05:56;;;;;;;;;;;15.60;99.90;;;;;;4956528;28;19972;-91
2023/07/05 16:08:29;;;;;;;;;;;15.60;99.90;;;;;;4957535;28;19933;-89
2023/07/05 16:10:58;;;;;;;;;;;15.60;99.90;;;;;;4956511;28;19934;-89
2023/07/05 16:13:24;;;;;;;;;;;15.30;99.90;;;;;;4956598;28;19997;-90
2023/07/05 16:15:53;;;;;;;;;;;15.80;99.90;;;;;;4956378;28;20020;-90
2023/07/05 16:18:21;;;;;;;;;;;15.40;99.90;;;;;;4957199;28;19930;-90
2023/07/05 16:20:53;;;;;;;;;;;15.80;99.90;;;;;;4956616;28;20012;-90
2023/07/05 16:23:18;;;;;;;;;;;15.80;99.90;;;;;;4957184;28;19926;-89
2023/07/05 16:25:44;;;;;;;;;;;15.90;99.90;;;;;;4956463;28;19926;-89
2023/07/05 16:28:17;;;;;;;;;;;15.80;99.90;;;;;;4958084;28;23433;-90
2023/07/05 16:30:43;;;;;;;;;;;15.80;99.90;;;;;;4972344;28;19930;-89
2023/07/05 16:33:09;;;;;;;;;;;15.80;99.90;;;;;;4956133;28;19936;-91
2023/07/05 16:35:35;;;;;;;;;;;15.90;99.90;;;;;;4956202;28;20401;-91
2023/07/05 16:38:01;;;;;;;;;;;16.00;99.90;;;;;;4956911;28;19985;-90
2023/07/05 16:40:27;;;;;;;;;;;16.10;99.90;;;;;;4956033;28;20000;-89
2023/07/05 16:42:53;;;;;;;;;;;16.10;99.90;;;;;;4956613;28;20433;-89
2023/07/05 16:45:19;;;;;;;;;;;16.20;99.90;;;;;;4955962;28;19930;-87
2023/07/05 16:47:45;;;;;;;;;;;16.20;99.90;;;;;;4971299;28;19930;-88
2023/07/05 16:50:15;;;;;;;;;;;16.20;99.90;;;;;;4957850;28;20012;-91
2023/07/05 16:52:41;;;;;;;;;;;16.30;99.90;;;;;;4956650;28;19926;-91
2023/07/05 16:55:08;;;;;;;;;;;16.30;99.90;;;;;;4957149;28;20463;-88
2023/07/05 16:57:35;;;;;;;;;;;16.20;99.90;;;;;;4955580;28;19930;-88